sensor_id;sensor_type;location;lat;lon;timestamp;pressure;altitude;pressure_sealevel;temperature;humidity
13934;BME280;7039;52.168;9.866;2022-07-24T00:01:18;101094.06;;;15.58;78.55
13934;BME280;7039;52.168;9.866;2022-07-24T00:03:47;101092.81;;;15.64;78.58
13934;BME280;7039;52.168;9.866;2022-07-24T06:17:43;101041.31;;;16.97;81.18
13934;BME280;7039;52.168;9.866;2022-07-24T06:20:11;101047.00;;;17.17;80.73
13934;BME280;7039;52.168;9.866;2022-07-24T06:25:21;101037.63;;;17.38;80.14
13934;BME280;7039;52.168;9.866;2022-07-24T06:28:05;101031.81;;;17.46;79.96
13934;BME280;7039;52.168;9.866;2022-07-24T06:36:31;101032.41;;;17.88;78.31
13934;BME280;7039;52.168;9.866;2022-07-24T06:42:06;101028.44;;;18.30;77.26
13934;BME280;7039;52.168;9.866;2022-07-24T06:44:33;101018.28;;;18.48;77.14
13934;BME280;7039;52.168;9.866;2022-07-24T06:47:01;101027.34;;;18.68;76.56
13934;BME280;7039;52.168;9.866;2022-07-24T06:49:28;101012.03;;;18.85;76.46
13934;BME280;7039;52.168;9.866;2022-07-24T06:51:56;101013.91;;;19.07;76.13
13934;BME280;7039;52.168;9.866;2022-07-24T06:54:24;101012.25;;;19.28;74.97
13934;BME280;7039;52.168;9.866;2022-07-24T06:59:54;101008.25;;;19.68;72.82
13934;BME280;7039;52.168;9.866;2022-07-24T07:02:22;101001.38;;;19.88;72.32
13934;BME280;7039;52.168;9.866;2022-07-24T07:04:49;101005.19;;;20.06;71.34
13934;BME280;7039;52.168;9.866;2022-07-24T07:07:17;100996.31;;;20.28;69.13
13934;BME280;7039;52.168;9.866;2022-07-24T07:19:10;100992.03;;;20.69;64.91
13934;BME280;7039;52.168;9.866;2022-07-24T07:21:42;100994.56;;;20.92;64.96
13934;BME280;7039;52.168;9.866;2022-07-24T07:27:41;100994.19;;;21.37;64.47
13934;BME280;7039;52.168;9.866;2022-07-24T07:30:09;100984.44;;;21.37;63.04
13934;BME280;7039;52.168;9.866;2022-07-24T07:42:27;100987.34;;;21.84;61.75
13934;BME280;7039;52.168;9.866;2022-07-24T07:44:55;100983.19;;;22.01;60.72
13934;BME280;7039;52.168;9.866;2022-07-24T07:47:24;100976.34;;;22.08;60.77
13934;BME280;7039;52.168;9.866;2022-07-24T07:49:51;100974.53;;;22.09;60.36
13934;BME280;7039;52.168;9.866;2022-07-24T07:52:18;100987.81;;;22.09;60.15
13934;BME280;7039;52.168;9.866;2022-07-24T07:54:46;100978.88;;;22.20;59.58
13934;BME280;7039;52.168;9.866;2022-07-24T07:57:15;100975.94;;;22.23;59.65
13934;BME280;7039;52.168;9.866;2022-07-24T07:59:42;100978.47;;;22.24;59.17
13934;BME280;7039;52.168;9.866;2022-07-24T08:08:49;100974.81;;;22.45;58.44
13934;BME280;7039;52.168;9.866;2022-07-24T08:14:32;100980.78;;;22.66;57.99
13934;BME280;7039;52.168;9.866;2022-07-24T08:16:59;100971.00;;;22.77;57.07
13934;BME280;7039;52.168;9.866;2022-07-24T08:19:25;100963.88;;;22.67;56.23
13934;BME280;7039;52.168;9.866;2022-07-24T08:21:52;100973.47;;;22.88;57.18
13934;BME280;7039;52.168;9.866;2022-07-24T08:24:20;100978.09;;;23.05;56.79
13934;BME280;7039;52.168;9.866;2022-07-24T08:26:47;100979.59;;;22.98;56.83
13934;BME280;7039;52.168;9.866;2022-07-24T08:29:13;100974.03;;;22.91;57.25
13934;BME280;7039;52.168;9.866;2022-07-24T08:31:40;100971.88;;;23.14;58.01
13934;BME280;7039;52.168;9.866;2022-07-24T08:34:06;100971.28;;;23.21;56.05
13934;BME280;7039;52.168;9.866;2022-07-24T08:36:33;100977.41;;;23.31;56.37
13934;BME280;7039;52.168;9.866;2022-07-24T08:38:59;100969.69;;;23.38;55.67
13934;BME280;7039;52.168;9.866;2022-07-24T08:41:30;100968.34;;;23.51;55.56
13934;BME280;7039;52.168;9.866;2022-07-24T08:43:57;100976.00;;;23.54;56.42
13934;BME280;7039;52.168;9.866;2022-07-24T08:46:25;100976.34;;;23.69;56.66
13934;BME280;7039;52.168;9.866;2022-07-24T08:48:53;100972.56;;;23.72;55.63
13934;BME280;7039;52.168;9.866;2022-07-24T08:51:19;100962.66;;;23.64;55.30
13934;BME280;7039;52.168;9.866;2022-07-24T08:53:47;100965.84;;;23.68;55.34
13934;BME280;7039;52.168;9.866;2022-07-24T08:56:15;100976.88;;;23.73;55.68
13934;BME280;7039;52.168;9.866;2022-07-24T08:58:44;100959.66;;;23.77;55.33
13934;BME280;7039;52.168;9.866;2022-07-24T09:01:10;100963.13;;;23.77;55.31
13934;BME280;7039;52.168;9.866;2022-07-24T09:03:38;100967.50;;;23.96;55.27
13934;BME280;7039;52.168;9.866;2022-07-24T09:06:07;100961.78;;;24.09;54.09
13934;BME280;7039;52.168;9.866;2022-07-24T09:08:33;100965.75;;;24.05;54.53
13934;BME280;7039;52.168;9.866;2022-07-24T09:11:02;100954.00;;;24.16;54.82
13934;BME280;7039;52.168;9.866;2022-07-24T09:13:30;100963.25;;;24.22;53.88
13934;BME280;7039;52.168;9.866;2022-07-24T09:16:19;100963.97;;;24.32;52.94
13934;BME280;7039;52.168;9.866;2022-07-24T09:18:48;100959.72;;;24.39;54.34
13934;BME280;7039;52.168;9.866;2022-07-24T09:21:16;100949.72;;;24.41;53.38
13934;BME280;7039;52.168;9.866;2022-07-24T09:23:44;100953.16;;;24.51;52.97
13934;BME280;7039;52.168;9.866;2022-07-24T09:26:10;100952.06;;;24.62;51.79
13934;BME280;7039;52.168;9.866;2022-07-24T09:28:48;100950.75;;;24.66;51.32
13934;BME280;7039;52.168;9.866;2022-07-24T09:31:15;100948.13;;;24.74;52.74
13934;BME280;7039;52.168;9.866;2022-07-24T09:33:43;100948.22;;;24.91;52.62
13934;BME280;7039;52.168;9.866;2022-07-24T09:36:13;100948.34;;;24.81;51.34
13934;BME280;7039;52.168;9.866;2022-07-24T09:38:46;100947.75;;;24.95;51.30
13934;BME280;7039;52.168;9.866;2022-07-24T09:41:19;100937.41;;;24.92;50.61
13934;BME280;7039;52.168;9.866;2022-07-24T09:43:56;100934.41;;;24.95;51.19
13934;BME280;7039;52.168;9.866;2022-07-24T09:46:24;100916.25;;;24.99;50.84
13934;BME280;7039;52.168;9.866;2022-07-24T09:48:54;100921.63;;;25.07;51.54
13934;BME280;7039;52.168;9.866;2022-07-24T09:51:23;100928.59;;;25.00;50.96
13934;BME280;7039;52.168;9.866;2022-07-24T09:53:53;100924.91;;;25.27;49.76
13934;BME280;7039;52.168;9.866;2022-07-24T09:56:21;100936.94;;;25.31;49.17
13934;BME280;7039;52.168;9.866;2022-07-24T09:58:50;100941.16;;;25.42;48.17
13934;BME280;7039;52.168;9.866;2022-07-24T10:01:19;100927.13;;;25.40;47.97
13934;BME280;7039;52.168;9.866;2022-07-24T10:03:48;100927.81;;;25.58;48.97
13934;BME280;7039;52.168;9.866;2022-07-24T10:06:17;100925.50;;;25.55;48.53
13934;BME280;7039;52.168;9.866;2022-07-24T10:08:46;100922.00;;;25.63;48.61
13934;BME280;7039;52.168;9.866;2022-07-24T10:11:14;100921.34;;;25.69;48.11
13934;BME280;7039;52.168;9.866;2022-07-24T10:13:42;100922.53;;;25.83;49.24
13934;BME280;7039;52.168;9.866;2022-07-24T10:16:27;100917.22;;;25.99;48.48
13934;BME280;7039;52.168;9.866;2022-07-24T10:18:55;100924.22;;;25.92;47.13
13934;BME280;7039;52.168;9.866;2022-07-24T10:21:26;100918.22;;;26.07;47.11
13934;BME280;7039;52.168;9.866;2022-07-24T10:24:10;100913.19;;;26.20;46.62
13934;BME280;7039;52.168;9.866;2022-07-24T10:26:38;100915.38;;;26.24;47.12
13934;BME280;7039;52.168;9.866;2022-07-24T10:29:07;100920.72;;;26.33;46.68
13934;BME280;7039;52.168;9.866;2022-07-24T10:31:36;100907.00;;;26.44;45.62
13934;BME280;7039;52.168;9.866;2022-07-24T10:34:06;100906.47;;;26.57;46.98
13934;BME280;7039;52.168;9.866;2022-07-24T10:36:41;100904.47;;;26.67;45.00
13934;BME280;7039;52.168;9.866;2022-07-24T10:39:13;100902.94;;;26.73;44.68
13934;BME280;7039;52.168;9.866;2022-07-24T10:41:59;100896.00;;;26.95;44.42
13934;BME280;7039;52.168;9.866;2022-07-24T10:44:26;100895.00;;;26.96;43.00
13934;BME280;7039;52.168;9.866;2022-07-24T10:46:57;100898.00;;;27.01;40.69
13934;BME280;7039;52.168;9.866;2022-07-24T10:49:51;100900.94;;;27.14;41.69
13934;BME280;7039;52.168;9.866;2022-07-24T10:52:25;100893.53;;;27.24;42.28
13934;BME280;7039;52.168;9.866;2022-07-24T10:55:20;100885.97;;;27.59;44.81
13934;BME280;7039;52.168;9.866;2022-07-24T10:57:48;100879.44;;;27.62;44.42
13934;BME280;7039;52.168;9.866;2022-07-24T11:00:22;100891.28;;;27.67;43.97
13934;BME280;7039;52.168;9.866;2022-07-24T11:02:55;100885.50;;;27.56;44.99
13934;BME280;7039;52.168;9.866;2022-07-24T11:05:23;100892.28;;;27.66;44.88
13934;BME280;7039;52.168;9.866;2022-07-24T11:08:19;100883.50;;;27.73;45.03
13934;BME280;7039;52.168;9.866;2022-07-24T11:10:58;100881.50;;;27.75;44.18
13934;BME280;7039;52.168;9.866;2022-07-24T11:13:49;100895.22;;;27.80;44.57
13934;BME280;7039;52.168;9.866;2022-07-24T11:16:20;100884.00;;;27.99;44.92
13934;BME280;7039;52.168;9.866;2022-07-24T11:19:26;100894.06;;;27.97;44.31
13934;BME280;7039;52.168;9.866;2022-07-24T11:22:07;100886.88;;;27.98;44.93
13934;BME280;7039;52.168;9.866;2022-07-24T11:24:39;100876.66;;;28.16;44.33
13934;BME280;7039;52.168;9.866;2022-07-24T11:27:08;100872.22;;;27.85;44.59
13934;BME280;7039;52.168;9.866;2022-07-24T11:29:41;100884.28;;;28.04;45.24
13934;BME280;7039;52.168;9.866;2022-07-24T11:32:09;100876.13;;;28.21;45.05
13934;BME280;7039;52.168;9.866;2022-07-24T11:34:44;100881.63;;;28.57;44.96
13934;BME280;7039;52.168;9.866;2022-07-24T11:37:11;100867.38;;;28.71;44.87
13934;BME280;7039;52.168;9.866;2022-07-24T11:39:41;100862.91;;;29.08;43.31
13934;BME280;7039;52.168;9.866;2022-07-24T11:42:10;100857.34;;;29.31;43.62
13934;BME280;7039;52.168;9.866;2022-07-24T11:44:38;100857.91;;;29.42;43.47
13934;BME280;7039;52.168;9.866;2022-07-24T11:47:07;100846.41;;;29.11;43.22
13934;BME280;7039;52.168;9.866;2022-07-24T11:49:44;100851.13;;;29.46;43.78
13934;BME280;7039;52.168;9.866;2022-07-24T11:52:16;100845.09;;;29.44;43.72
13934;BME280;7039;52.168;9.866;2022-07-24T11:54:45;100849.63;;;29.22;42.27
13934;BME280;7039;52.168;9.866;2022-07-24T11:57:19;100833.81;;;29.33;42.69
13934;BME280;7039;52.168;9.866;2022-07-24T11:59:47;100838.75;;;29.51;43.03
13934;BME280;7039;52.168;9.866;2022-07-24T12:02:15;100837.69;;;29.89;42.25
13934;BME280;7039;52.168;9.866;2022-07-24T12:04:42;100847.91;;;30.28;44.27
13934;BME280;7039;52.168;9.866;2022-07-24T12:07:12;100838.47;;;30.17;41.65
13934;BME280;7039;52.168;9.866;2022-07-24T12:09:50;100832.59;;;30.29;40.43
13934;BME280;7039;52.168;9.866;2022-07-24T12:12:19;100821.69;;;30.15;41.25
13934;BME280;7039;52.168;9.866;2022-07-24T12:14:45;100830.16;;;30.41;41.58
13934;BME280;7039;52.168;9.866;2022-07-24T12:17:12;100827.25;;;30.35;40.79
13934;BME280;7039;52.168;9.866;2022-07-24T12:19:39;100816.47;;;30.35;40.89
13934;BME280;7039;52.168;9.866;2022-07-24T12:22:05;100817.00;;;30.24;40.34
13934;BME280;7039;52.168;9.866;2022-07-24T12:24:32;100814.28;;;29.89;41.79
13934;BME280;7039;52.168;9.866;2022-07-24T12:27:00;100813.00;;;30.13;41.30
13934;BME280;7039;52.168;9.866;2022-07-24T12:29:27;100802.34;;;29.70;41.80
13934;BME280;7039;52.168;9.866;2022-07-24T12:32:12;100794.00;;;30.56;42.38
13934;BME280;7039;52.168;9.866;2022-07-24T12:34:43;100805.66;;;31.38;41.89
13934;BME280;7039;52.168;9.866;2022-07-24T12:37:16;100803.81;;;31.92;38.68
13934;BME280;7039;52.168;9.866;2022-07-24T12:39:46;100800.94;;;31.54;38.44
13934;BME280;7039;52.168;9.866;2022-07-24T12:42:14;100790.56;;;31.64;38.30
13934;BME280;7039;52.168;9.866;2022-07-24T12:44:43;100792.22;;;31.72;37.75
13934;BME280;7039;52.168;9.866;2022-07-24T12:47:10;100789.31;;;31.47;38.03
13934;BME280;7039;52.168;9.866;2022-07-24T12:49:40;100784.94;;;31.39;38.85
13934;BME280;7039;52.168;9.866;2022-07-24T12:52:18;100784.31;;;31.63;37.84
13934;BME280;7039;52.168;9.866;2022-07-24T12:54:46;100778.53;;;31.60;37.71
13934;BME280;7039;52.168;9.866;2022-07-24T12:57:14;100773.50;;;31.24;38.20
13934;BME280;7039;52.168;9.866;2022-07-24T12:59:42;100778.09;;;31.36;38.88
13934;BME280;7039;52.168;9.866;2022-07-24T13:02:10;100771.22;;;32.20;39.75
13934;BME280;7039;52.168;9.866;2022-07-24T13:04:41;100767.38;;;32.93;39.03
13934;BME280;7039;52.168;9.866;2022-07-24T13:07:08;100769.13;;;33.69;38.63
13934;BME280;7039;52.168;9.866;2022-07-24T13:09:36;100764.19;;;33.03;35.78
13934;BME280;7039;52.168;9.866;2022-07-24T13:12:04;100738.81;;;33.04;35.35
13934;BME280;7039;52.168;9.866;2022-07-24T13:14:32;100754.25;;;33.28;36.57
13934;BME280;7039;52.168;9.866;2022-07-24T13:17:04;100749.97;;;33.46;35.60
13934;BME280;7039;52.168;9.866;2022-07-24T13:19:34;100739.75;;;33.73;35.18
13934;BME280;7039;52.168;9.866;2022-07-24T13:22:00;100744.97;;;34.48;34.75
13934;BME280;7039;52.168;9.866;2022-07-24T13:24:28;100745.09;;;34.53;34.62
13934;BME280;7039;52.168;9.866;2022-07-24T13:26:55;100733.69;;;35.35;34.15
13934;BME280;7039;52.168;9.866;2022-07-24T13:29:22;100733.34;;;35.44;33.18
13934;BME280;7039;52.168;9.866;2022-07-24T13:31:50;100725.69;;;36.40;31.97
13934;BME280;7039;52.168;9.866;2022-07-24T13:34:17;100729.91;;;36.60;30.88
13934;BME280;7039;52.168;9.866;2022-07-24T13:36:44;100724.06;;;36.68;30.60
13934;BME280;7039;52.168;9.866;2022-07-24T13:39:12;100724.78;;;35.70;31.24
13934;BME280;7039;52.168;9.866;2022-07-24T13:41:39;100714.00;;;35.87;32.19
13934;BME280;7039;52.168;9.866;2022-07-24T13:44:06;100719.56;;;36.33;31.36
13934;BME280;7039;52.168;9.866;2022-07-24T13:46:33;100718.03;;;35.61;32.91
13934;BME280;7039;52.168;9.866;2022-07-24T13:49:03;100712.44;;;36.03;31.51
13934;BME280;7039;52.168;9.866;2022-07-24T13:51:31;100706.81;;;35.69;31.82
13934;BME280;7039;52.168;9.866;2022-07-24T13:53:58;100714.00;;;35.40;32.55
13934;BME280;7039;52.168;9.866;2022-07-24T13:56:25;100716.59;;;35.23;32.54
13934;BME280;7039;52.168;9.866;2022-07-24T13:58:52;100708.66;;;36.16;31.82
13934;BME280;7039;52.168;9.866;2022-07-24T14:01:19;100710.81;;;36.02;31.86
13934;BME280;7039;52.168;9.866;2022-07-24T14:03:46;100698.47;;;36.64;31.86
13934;BME280;7039;52.168;9.866;2022-07-24T14:06:15;100693.25;;;36.79;32.07
13934;BME280;7039;52.168;9.866;2022-07-24T14:08:41;100685.06;;;37.08;30.46
13934;BME280;7039;52.168;9.866;2022-07-24T14:11:09;100695.75;;;37.65;29.94
13934;BME280;7039;52.168;9.866;2022-07-24T14:13:36;100697.63;;;38.03;29.09
13934;BME280;7039;52.168;9.866;2022-07-24T14:16:03;100684.97;;;37.19;30.73
13934;BME280;7039;52.168;9.866;2022-07-24T14:18:30;100683.59;;;36.54;31.32
13934;BME280;7039;52.168;9.866;2022-07-24T14:20:56;100686.38;;;36.02;32.20
13934;BME280;7039;52.168;9.866;2022-07-24T14:23:24;100683.19;;;35.93;30.92
13934;BME280;7039;52.168;9.866;2022-07-24T14:25:51;100680.38;;;35.76;32.03
13934;BME280;7039;52.168;9.866;2022-07-24T14:28:17;100681.97;;;36.13;31.67
13934;BME280;7039;52.168;9.866;2022-07-24T14:30:44;100684.97;;;37.03;31.28
13934;BME280;7039;52.168;9.866;2022-07-24T14:33:11;100672.19;;;37.76;29.70
13934;BME280;7039;52.168;9.866;2022-07-24T14:35:38;100670.13;;;37.61;29.64
13934;BME280;7039;52.168;9.866;2022-07-24T14:38:04;100672.16;;;38.69;29.01
13934;BME280;7039;52.168;9.866;2022-07-24T14:40:32;100669.75;;;38.73;29.88
13934;BME280;7039;52.168;9.866;2022-07-24T14:42:59;100667.47;;;38.10;29.61
13934;BME280;7039;52.168;9.866;2022-07-24T14:45:25;100653.78;;;37.61;30.26
13934;BME280;7039;52.168;9.866;2022-07-24T14:47:52;100647.00;;;37.25;30.33
13934;BME280;7039;52.168;9.866;2022-07-24T14:50:18;100641.56;;;37.08;30.46
13934;BME280;7039;52.168;9.866;2022-07-24T14:52:45;100638.34;;;36.77;31.25
13934;BME280;7039;52.168;9.866;2022-07-24T14:55:12;100643.47;;;37.07;30.54
13934;BME280;7039;52.168;9.866;2022-07-24T14:57:40;100640.88;;;37.95;29.05
13934;BME280;7039;52.168;9.866;2022-07-24T15:00:07;100629.53;;;38.03;30.16
13934;BME280;7039;52.168;9.866;2022-07-24T15:02:34;100626.28;;;37.85;30.00
13934;BME280;7039;52.168;9.866;2022-07-24T15:05:01;100625.34;;;37.35;29.49
13934;BME280;7039;52.168;9.866;2022-07-24T15:07:28;100633.63;;;37.06;30.26
13934;BME280;7039;52.168;9.866;2022-07-24T15:09:54;100624.59;;;37.39;30.13
13934;BME280;7039;52.168;9.866;2022-07-24T15:12:21;100617.69;;;37.71;29.31
13934;BME280;7039;52.168;9.866;2022-07-24T15:14:49;100628.56;;;38.15;29.30
13934;BME280;7039;52.168;9.866;2022-07-24T15:17:15;100615.25;;;38.18;29.06
13934;BME280;7039;52.168;9.866;2022-07-24T15:19:42;100607.59;;;37.93;29.29
13934;BME280;7039;52.168;9.866;2022-07-24T15:22:08;100609.72;;;38.40;29.44
13934;BME280;7039;52.168;9.866;2022-07-24T15:24:35;100609.63;;;38.03;29.39
13934;BME280;7039;52.168;9.866;2022-07-24T15:27:01;100600.44;;;37.43;29.75
13934;BME280;7039;52.168;9.866;2022-07-24T15:29:28;100595.63;;;38.16;28.70
13934;BME280;7039;52.168;9.866;2022-07-24T15:31:57;100590.66;;;37.64;29.58
13934;BME280;7039;52.168;9.866;2022-07-24T15:34:23;100583.06;;;37.66;29.49
13934;BME280;7039;52.168;9.866;2022-07-24T15:36:50;100585.63;;;38.00;29.81
13934;BME280;7039;52.168;9.866;2022-07-24T15:39:16;100588.44;;;38.64;28.11
13934;BME280;7039;52.168;9.866;2022-07-24T15:41:43;100583.72;;;40.18;28.77
13934;BME280;7039;52.168;9.866;2022-07-24T15:44:09;100587.47;;;38.49;28.47
13934;BME280;7039;52.168;9.866;2022-07-24T15:46:36;100581.00;;;37.78;30.04
13934;BME280;7039;52.168;9.866;2022-07-24T15:49:05;100574.94;;;37.27;29.73
13934;BME280;7039;52.168;9.866;2022-07-24T15:51:34;100575.34;;;37.58;29.75
13934;BME280;7039;52.168;9.866;2022-07-24T15:54:01;100565.00;;;37.16;30.22
13934;BME280;7039;52.168;9.866;2022-07-24T15:56:28;100561.75;;;37.19;30.27
13934;BME280;7039;52.168;9.866;2022-07-24T15:58:54;100569.09;;;37.18;30.07
13934;BME280;7039;52.168;9.866;2022-07-24T16:01:21;100558.41;;;37.12;29.69
13934;BME280;7039;52.168;9.866;2022-07-24T16:03:48;100563.97;;;37.44;30.24
13934;BME280;7039;52.168;9.866;2022-07-24T16:06:16;100555.72;;;37.34;29.11
13934;BME280;7039;52.168;9.866;2022-07-24T16:08:42;100557.66;;;37.38;30.33
13934;BME280;7039;52.168;9.866;2022-07-24T16:11:09;100550.03;;;37.57;29.82
13934;BME280;7039;52.168;9.866;2022-07-24T16:13:35;100548.41;;;37.17;30.42
13934;BME280;7039;52.168;9.866;2022-07-24T16:16:02;100553.66;;;37.46;30.39
13934;BME280;7039;52.168;9.866;2022-07-24T16:18:28;100554.28;;;37.97;29.63
13934;BME280;7039;52.168;9.866;2022-07-24T16:20:56;100539.56;;;37.27;29.88
13934;BME280;7039;52.168;9.866;2022-07-24T16:23:23;100547.91;;;38.14;29.17
13934;BME280;7039;52.168;9.866;2022-07-24T16:25:50;100543.28;;;37.87;30.17
13934;BME280;7039;52.168;9.866;2022-07-24T16:28:16;100538.78;;;37.76;29.21
13934;BME280;7039;52.168;9.866;2022-07-24T16:30:43;100541.19;;;37.72;29.70
13934;BME280;7039;52.168;9.866;2022-07-24T16:33:10;100533.44;;;36.30;30.91
13934;BME280;7039;52.168;9.866;2022-07-24T16:35:36;100534.94;;;36.55;30.68
13934;BME280;7039;52.168;9.866;2022-07-24T16:38:03;100537.78;;;37.16;30.45
13934;BME280;7039;52.168;9.866;2022-07-24T16:40:30;100527.28;;;37.47;30.22
13934;BME280;7039;52.168;9.866;2022-07-24T16:42:57;100520.06;;;37.35;30.26
13934;BME280;7039;52.168;9.866;2022-07-24T16:45:23;100527.53;;;38.49;30.32
13934;BME280;7039;52.168;9.866;2022-07-24T16:47:50;100518.59;;;37.72;29.78
13934;BME280;7039;52.168;9.866;2022-07-24T16:50:16;100515.81;;;38.16;29.10
13934;BME280;7039;52.168;9.866;2022-07-24T16:52:43;100516.84;;;37.88;29.92
13934;BME280;7039;52.168;9.866;2022-07-24T16:55:09;100503.75;;;37.35;30.27
13934;BME280;7039;52.168;9.866;2022-07-24T16:57:37;100504.56;;;37.58;30.00
13934;BME280;7039;52.168;9.866;2022-07-24T17:00:06;100506.06;;;37.71;29.48
13934;BME280;7039;52.168;9.866;2022-07-24T17:02:36;100504.56;;;37.85;30.13
13934;BME280;7039;52.168;9.866;2022-07-24T17:05:03;100502.38;;;38.41;29.38
13934;BME280;7039;52.168;9.866;2022-07-24T17:07:30;100503.94;;;38.32;29.28
13934;BME280;7039;52.168;9.866;2022-07-24T17:09:56;100505.81;;;37.50;30.33
13934;BME280;7039;52.168;9.866;2022-07-24T17:12:23;100493.75;;;37.41;30.14
13934;BME280;7039;52.168;9.866;2022-07-24T17:14:52;100486.09;;;37.16;31.29
13934;BME280;7039;52.168;9.866;2022-07-24T17:17:18;100490.91;;;37.31;30.53
13934;BME280;7039;52.168;9.866;2022-07-24T17:19:45;100499.34;;;37.29;30.24
13934;BME280;7039;52.168;9.866;2022-07-24T17:22:16;100494.59;;;37.03;30.80
13934;BME280;7039;52.168;9.866;2022-07-24T17:24:43;100495.44;;;36.64;30.80
13934;BME280;7039;52.168;9.866;2022-07-24T17:27:10;100484.75;;;36.41;31.11
13934;BME280;7039;52.168;9.866;2022-07-24T17:29:36;100485.78;;;36.56;31.14
13934;BME280;7039;52.168;9.866;2022-07-24T17:32:05;100496.81;;;37.23;30.32
13934;BME280;7039;52.168;9.866;2022-07-24T17:34:32;100492.22;;;37.28;30.83
13934;BME280;7039;52.168;9.866;2022-07-24T17:36:58;100489.91;;;37.86;30.33
13934;BME280;7039;52.168;9.866;2022-07-24T17:39:25;100482.00;;;36.96;30.87
13934;BME280;7039;52.168;9.866;2022-07-24T17:41:51;100481.34;;;36.16;31.30
13934;BME280;7039;52.168;9.866;2022-07-24T17:44:17;100477.13;;;36.09;32.18
13934;BME280;7039;52.168;9.866;2022-07-24T17:46:44;100482.38;;;36.83;32.16
13934;BME280;7039;52.168;9.866;2022-07-24T17:49:12;100475.19;;;37.38;31.23
13934;BME280;7039;52.168;9.866;2022-07-24T17:51:38;100480.19;;;38.65;30.18
13934;BME280;7039;52.168;9.866;2022-07-24T17:54:05;100481.19;;;39.64;28.31
13934;BME280;7039;52.168;9.866;2022-07-24T17:56:31;100479.81;;;39.62;29.59
13934;BME280;7039;52.168;9.866;2022-07-24T17:58:58;100479.22;;;38.87;29.84
13934;BME280;7039;52.168;9.866;2022-07-24T18:01:24;100472.25;;;38.58;29.99
13934;BME280;7039;52.168;9.866;2022-07-24T18:03:51;100483.59;;;38.45;30.25
13934;BME280;7039;52.168;9.866;2022-07-24T18:06:19;100473.84;;;38.97;29.62
13934;BME280;7039;52.168;9.866;2022-07-24T18:08:45;100469.44;;;37.56;30.55
13934;BME280;7039;52.168;9.866;2022-07-24T18:11:12;100471.38;;;37.12;31.20
13934;BME280;7039;52.168;9.866;2022-07-24T18:13:38;100472.88;;;37.25;31.51
13934;BME280;7039;52.168;9.866;2022-07-24T18:16:05;100469.88;;;36.82;31.59
13934;BME280;7039;52.168;9.866;2022-07-24T18:18:32;100456.63;;;35.84;33.47
13934;BME280;7039;52.168;9.866;2022-07-24T18:20:58;100457.50;;;34.80;34.62
13934;BME280;7039;52.168;9.866;2022-07-24T18:23:26;100455.75;;;34.08;34.53
13934;BME280;7039;52.168;9.866;2022-07-24T18:25:53;100463.28;;;33.46;35.56
13934;BME280;7039;52.168;9.866;2022-07-24T18:28:19;100457.41;;;33.19;36.89
13934;BME280;7039;52.168;9.866;2022-07-24T18:30:46;100459.28;;;32.75;37.43
13934;BME280;7039;52.168;9.866;2022-07-24T18:33:12;100454.84;;;32.37;39.92
13934;BME280;7039;52.168;9.866;2022-07-24T18:35:39;100457.97;;;32.09;38.98
13934;BME280;7039;52.168;9.866;2022-07-24T18:38:06;100456.47;;;31.81;40.09
13934;BME280;7039;52.168;9.866;2022-07-24T18:40:35;100453.47;;;31.64;41.08
13934;BME280;7039;52.168;9.866;2022-07-24T18:43:02;100459.16;;;31.42;42.36
13934;BME280;7039;52.168;9.866;2022-07-24T18:45:28;100451.97;;;31.30;43.23
13934;BME280;7039;52.168;9.866;2022-07-24T18:47:55;100446.69;;;30.96;44.42
13934;BME280;7039;52.168;9.866;2022-07-24T18:50:22;100442.38;;;30.55;44.94
13934;BME280;7039;52.168;9.866;2022-07-24T18:52:48;100451.72;;;30.33;44.92
13934;BME280;7039;52.168;9.866;2022-07-24T18:55:15;100449.78;;;29.93;46.88
13934;BME280;7039;52.168;9.866;2022-07-24T18:57:43;100455.88;;;29.61;47.50
13934;BME280;7039;52.168;9.866;2022-07-24T19:00:10;100458.03;;;29.30;49.48
13934;BME280;7039;52.168;9.866;2022-07-24T19:02:37;100455.06;;;29.12;49.68
13934;BME280;7039;52.168;9.866;2022-07-24T19:05:04;100466.81;;;29.11;49.78
13934;BME280;7039;52.168;9.866;2022-07-24T19:07:31;100471.31;;;29.04;49.92
13934;BME280;7039;52.168;9.866;2022-07-24T19:09:58;100466.66;;;28.84;49.91
13934;BME280;7039;52.168;9.866;2022-07-24T19:12:25;100463.44;;;28.67;50.03
13934;BME280;7039;52.168;9.866;2022-07-24T19:14:53;100459.09;;;28.45;50.33
13934;BME280;7039;52.168;9.866;2022-07-24T19:17:19;100461.31;;;28.13;50.87
13934;BME280;7039;52.168;9.866;2022-07-24T19:19:45;100456.53;;;27.87;52.04
13934;BME280;7039;52.168;9.866;2022-07-24T19:22:12;100461.97;;;27.79;52.11
13934;BME280;7039;52.168;9.866;2022-07-24T19:24:38;100463.13;;;27.55;52.90
13934;BME280;7039;52.168;9.866;2022-07-24T19:27:05;100473.50;;;27.43;53.35
13934;BME280;7039;52.168;9.866;2022-07-24T19:29:31;100469.56;;;27.24;53.71
13934;BME280;7039;52.168;9.866;2022-07-24T19:31:59;100471.03;;;27.12;54.48
13934;BME280;7039;52.168;9.866;2022-07-24T19:34:26;100474.41;;;26.76;55.53
13934;BME280;7039;52.168;9.866;2022-07-24T19:36:53;100476.16;;;26.69;55.21
13934;BME280;7039;52.168;9.866;2022-07-24T19:39:20;100473.56;;;26.60;55.31
13934;BME280;7039;52.168;9.866;2022-07-24T19:41:46;100474.78;;;26.50;56.34
13934;BME280;7039;52.168;9.866;2022-07-24T19:44:13;100477.78;;;26.32;55.85
13934;BME280;7039;52.168;9.866;2022-07-24T19:46:41;100476.28;;;26.29;55.97
13934;BME280;7039;52.168;9.866;2022-07-24T19:49:09;100481.06;;;26.19;56.83
13934;BME280;7039;52.168;9.866;2022-07-24T19:51:36;100476.19;;;25.99;56.93
13934;BME280;7039;52.168;9.866;2022-07-24T19:54:02;100470.41;;;25.88;56.98
13934;BME280;7039;52.168;9.866;2022-07-24T19:56:29;100471.91;;;25.82;57.00
13934;BME280;7039;52.168;9.866;2022-07-24T19:58:55;100466.78;;;25.72;57.59
13934;BME280;7039;52.168;9.866;2022-07-24T20:01:22;100476.94;;;25.77;56.75
13934;BME280;7039;52.168;9.866;2022-07-24T20:03:48;100476.53;;;25.65;57.04
13934;BME280;7039;52.168;9.866;2022-07-24T20:06:16;100471.03;;;25.58;57.73